createdAt,value
2023-02-22T00:00:29.296Z,18.88
2023-02-22T00:02:59.925Z,17.67
2023-02-22T00:05:29.207Z,17.73
2023-02-22T00:07:57.823Z,16.50
2023-02-22T00:10:26.183Z,16.63
2023-02-22T00:12:55.789Z,16.88
2023-02-22T00:15:28.374Z,16.52
2023-02-22T00:17:57.147Z,16.45
2023-02-22T00:20:25.202Z,17.50
2023-02-22T00:22:53.422Z,18.30
2023-02-22T00:25:22.577Z,18.00
2023-02-22T00:27:52.831Z,17.52
2023-02-22T00:30:22.774Z,17.40
2023-02-22T00:32:52.260Z,18.13
2023-02-22T00:35:22.690Z,19.08
2023-02-22T00:37:52.378Z,18.70
2023-02-22T00:40:21.505Z,19.15
2023-02-22T00:42:49.555Z,18.17
2023-02-22T00:45:19.187Z,20.23
2023-02-22T00:47:46.923Z,19.70
2023-02-22T00:50:18.735Z,20.63
2023-02-22T00:52:46.543Z,21.42
2023-02-22T00:55:18.167Z,21.70
2023-02-22T00:57:46.386Z,21.65
2023-02-22T01:00:18.800Z,21.85
2023-02-22T01:02:46.623Z,21.45
2023-02-22T01:05:16.357Z,22.23
2023-02-22T01:07:45.759Z,23.63
2023-02-22T01:10:15.496Z,22.55
2023-02-22T01:12:43.663Z,21.80
2023-02-22T01:15:12.352Z,23.27
2023-02-22T01:17:41.672Z,23.02
2023-02-22T01:20:13.738Z,22.83
2023-02-22T01:22:42.504Z,23.85
2023-02-22T01:25:12.728Z,25.55
2023-02-22T01:27:40.764Z,24.23
2023-02-22T01:30:09.939Z,24.25
2023-02-22T01:32:42.572Z,25.00
2023-02-22T01:35:13.757Z,25.10
2023-02-22T01:37:42.127Z,26.20
2023-02-22T01:40:17.298Z,24.23
2023-02-22T01:42:45.612Z,26.02
2023-02-22T01:45:41.293Z,25.63
2023-02-22T01:48:10.872Z,25.23
2023-02-22T01:50:41.399Z,25.30
2023-02-22T01:53:10.595Z,25.42
2023-02-22T01:55:41.916Z,25.75
2023-02-22T01:58:10.399Z,25.73
2023-02-22T02:00:39.959Z,25.67
2023-02-22T02:03:11.166Z,27.65
2023-02-22T02:05:39.800Z,26.92
2023-02-22T02:08:14.565Z,26.63
2023-02-22T02:10:45.212Z,29.13
2023-02-22T02:13:13.084Z,26.02
2023-02-22T02:15:40.847Z,28.88
2023-02-22T02:18:11.041Z,25.73
2023-02-22T02:20:46.442Z,28.17
2023-02-22T02:23:33.887Z,26.63
2023-02-22T02:26:30.405Z,26.05
2023-02-22T02:29:25.336Z,26.15
2023-02-22T02:32:16.481Z,27.17
2023-02-22T02:34:50.771Z,26.50
2023-02-22T02:37:23.463Z,28.58
2023-02-22T02:39:54.123Z,28.98
2023-02-22T02:42:24.634Z,27.00
2023-02-22T02:44:56.652Z,27.48
2023-02-22T02:47:29.438Z,27.48
2023-02-22T02:50:02.804Z,26.58
2023-02-22T02:52:32.564Z,28.20
2023-02-22T02:55:02.103Z,26.40
2023-02-22T02:57:29.941Z,27.83
2023-02-22T02:59:57.653Z,27.95
2023-02-22T03:02:40.670Z,28.10
2023-02-22T03:05:17.420Z,26.63
2023-02-22T03:07:51.182Z,27.60
2023-02-22T03:10:41.045Z,27.58
2023-02-22T03:13:16.430Z,27.63
2023-02-22T03:15:52.478Z,28.55
2023-02-22T03:18:29.113Z,28.67
2023-02-22T03:21:01.335Z,27.45
2023-02-22T03:23:34.743Z,26.38
2023-02-22T03:26:06.317Z,28.50
2023-02-22T03:28:41.150Z,27.45
2023-02-22T03:31:13.973Z,27.27
2023-02-22T03:33:47.724Z,27.73
2023-02-22T03:36:19.756Z,26.00
2023-02-22T03:38:48.303Z,28.08
2023-02-22T03:41:19.423Z,28.23
2023-02-22T03:43:50.615Z,27.23
2023-02-22T03:46:20.330Z,26.83
2023-02-22T03:48:54.172Z,27.48
2023-02-22T03:51:22.631Z,26.52
2023-02-22T03:53:54.324Z,27.33
2023-02-22T03:56:35.948Z,27.70
2023-02-22T03:59:04.548Z,27.50
2023-02-22T04:01:32.313Z,27.17
2023-02-22T04:04:01.799Z,27.00
2023-02-22T04:06:30.401Z,28.10
2023-02-22T04:08:59.721Z,28.55
2023-02-22T04:11:27.849Z,30.30
2023-02-22T04:13:55.944Z,29.20
2023-02-22T04:16:23.772Z,28.38
2023-02-22T04:18:51.940Z,27.25
2023-02-22T04:21:22.120Z,27.60
2023-02-22T04:23:52.265Z,27.67
2023-02-22T04:26:21.159Z,27.20
2023-02-22T04:28:54.232Z,27.38
2023-02-22T04:31:24.857Z,28.02
2023-02-22T04:33:54.486Z,27.33
2023-02-22T04:36:28.244Z,27.92
2023-02-22T04:38:56.091Z,26.30
2023-02-22T04:41:25.632Z,26.20
2023-02-22T04:43:54.061Z,27.65
2023-02-22T04:46:24.277Z,27.25
2023-02-22T04:48:53.816Z,28.55
2023-02-22T04:51:24.632Z,29.23
2023-02-22T04:54:01.537Z,28.05
2023-02-22T04:56:30.799Z,29.00
2023-02-22T04:58:58.542Z,28.45
2023-02-22T05:01:26.410Z,28.60
2023-02-22T05:03:54.580Z,27.70
2023-02-22T05:06:24.396Z,27.08
2023-02-22T05:08:53.290Z,28.13
2023-02-22T05:11:23.070Z,27.40
2023-02-22T05:13:51.343Z,27.35
2023-02-22T05:16:19.479Z,27.48
2023-02-22T05:18:47.217Z,28.85
2023-02-22T05:21:15.309Z,27.45
2023-02-22T05:23:43.250Z,29.58
2023-02-22T05:26:12.250Z,27.20
2023-02-22T05:28:41.374Z,29.85
2023-02-22T05:31:11.589Z,31.25
2023-02-22T05:33:39.728Z,31.02
2023-02-22T05:36:08.555Z,31.13
2023-02-22T05:38:43.261Z,32.58
2023-02-22T05:41:11.778Z,33.20
2023-02-22T05:43:41.660Z,33.10
2023-02-22T05:46:09.786Z,33.38
2023-02-22T05:48:37.661Z,34.45
2023-02-22T05:51:05.877Z,33.22
2023-02-22T05:53:33.921Z,31.92
2023-02-22T05:56:01.739Z,32.88
2023-02-22T05:58:29.591Z,33.92
2023-02-22T06:00:58.728Z,31.30
2023-02-22T06:03:26.858Z,30.08
2023-02-22T06:05:54.562Z,31.00
2023-02-22T06:08:22.335Z,32.03
2023-02-22T06:10:50.205Z,31.27
2023-02-22T06:13:18.067Z,31.13
2023-02-22T06:15:45.845Z,30.15
2023-02-22T06:18:15.038Z,31.95
2023-02-22T06:20:42.793Z,31.45
2023-02-22T06:23:11.235Z,32.25
2023-02-22T06:25:39.072Z,29.55
2023-02-22T06:28:06.855Z,29.40
2023-02-22T06:30:35.017Z,32.38
2023-02-22T06:33:02.904Z,33.10
2023-02-22T06:35:32.258Z,32.63
2023-02-22T06:37:59.966Z,31.30
2023-02-22T06:40:29.518Z,34.40
2023-02-22T06:42:58.163Z,34.85
2023-02-22T06:45:26.135Z,34.58
2023-02-22T06:47:53.945Z,34.58
2023-02-22T06:50:24.738Z,33.97
2023-02-22T06:52:53.971Z,33.85
2023-02-22T06:55:23.133Z,34.55
2023-02-22T06:57:51.797Z,34.42
2023-02-22T07:00:21.042Z,32.80
2023-02-22T07:02:49.352Z,35.63
2023-02-22T07:05:19.205Z,34.85
2023-02-22T07:07:47.422Z,34.65
2023-02-22T07:10:22.076Z,35.60
2023-02-22T07:12:50.905Z,35.45
2023-02-22T07:15:19.235Z,35.75
2023-02-22T07:17:47.469Z,35.78
2023-02-22T07:20:15.750Z,34.67
2023-02-22T07:22:43.969Z,35.30
2023-02-22T07:25:12.642Z,35.63
2023-02-22T07:27:42.819Z,36.10
2023-02-22T07:30:17.568Z,34.78
2023-02-22T07:32:46.053Z,34.65
2023-02-22T07:35:18.478Z,34.67
2023-02-22T07:37:48.075Z,33.97
2023-02-22T07:40:17.375Z,34.63
2023-02-22T07:42:57.425Z,32.95
2023-02-22T07:45:28.205Z,31.67
2023-02-22T07:47:56.221Z,33.80
2023-02-22T07:50:25.582Z,30.50
2023-02-22T07:52:55.359Z,30.45
2023-02-22T07:55:24.673Z,28.25
2023-02-22T07:57:54.047Z,28.52
2023-02-22T08:00:26.138Z,28.95
2023-02-22T08:02:54.747Z,28.48
2023-02-22T08:05:24.315Z,28.13
2023-02-22T08:07:52.512Z,27.02
2023-02-22T08:10:22.474Z,27.95
2023-02-22T08:12:50.876Z,28.77
2023-02-22T08:15:19.993Z,27.25
2023-02-22T08:17:49.445Z,26.70
2023-02-22T08:20:17.680Z,26.50
2023-02-22T08:22:45.480Z,27.73
2023-02-22T08:25:15.466Z,25.35
2023-02-22T08:27:43.955Z,26.42
2023-02-22T08:30:15.587Z,26.52
2023-02-22T08:32:43.739Z,30.52
2023-02-22T08:35:13.710Z,29.33
2023-02-22T08:37:44.385Z,28.42
2023-02-22T08:40:14.818Z,34.55
2023-02-22T08:42:42.838Z,29.83
2023-02-22T08:45:12.172Z,27.70
2023-02-22T08:47:40.143Z,27.10
2023-02-22T08:50:08.945Z,35.92
2023-02-22T08:52:38.060Z,31.23
2023-02-22T08:55:06.703Z,30.35
2023-02-22T08:57:34.669Z,30.52
2023-02-22T09:00:02.830Z,27.98
2023-02-22T09:02:30.687Z,29.73
2023-02-22T09:04:58.526Z,28.35
2023-02-22T09:07:26.381Z,30.00
2023-02-22T09:09:55.593Z,31.58
2023-02-22T09:12:23.715Z,33.08
2023-02-22T09:14:51.628Z,29.20
2023-02-22T09:17:19.586Z,28.13
2023-02-22T09:19:47.413Z,28.17
2023-02-22T09:22:15.198Z,29.13
2023-02-22T09:24:43.530Z,29.98
2023-02-22T09:27:12.916Z,29.92
2023-02-22T09:29:40.712Z,30.13
2023-02-22T09:32:08.702Z,31.13
2023-02-22T09:34:37.243Z,30.88
2023-02-22T09:37:08.777Z,31.23
2023-02-22T09:39:38.029Z,31.08
2023-02-22T09:42:10.879Z,31.83
2023-02-22T09:44:43.602Z,30.70
2023-02-22T09:47:18.311Z,30.00
2023-02-22T09:49:57.482Z,29.00
2023-02-22T09:52:28.956Z,27.45
2023-02-22T09:55:04.870Z,30.77
2023-02-22T09:57:35.589Z,28.25
2023-02-22T10:00:13.951Z,28.63
2023-02-22T10:02:48.477Z,27.05
2023-02-22T10:05:21.122Z,26.58
2023-02-22T10:07:53.703Z,27.80
2023-02-22T10:10:23.284Z,28.40
2023-02-22T10:13:00.708Z,28.42
2023-02-22T10:15:38.317Z,26.10
2023-02-22T10:18:33.498Z,27.17
2023-02-22T10:21:08.117Z,28.48
2023-02-22T10:23:40.052Z,27.90
2023-02-22T10:26:16.486Z,32.92
2023-02-22T10:28:50.914Z,32.67
2023-02-22T10:31:24.058Z,28.60
2023-02-22T10:33:56.895Z,26.92
2023-02-22T10:36:25.666Z,30.17
2023-02-22T10:38:56.136Z,26.10
2023-02-22T10:41:29.306Z,28.75
2023-02-22T10:43:57.713Z,26.83
2023-02-22T10:46:29.236Z,27.50
2023-02-22T10:49:02.750Z,25.95
2023-02-22T10:51:31.487Z,27.77
2023-02-22T10:54:03.544Z,25.48
2023-02-22T10:56:31.415Z,26.75
2023-02-22T10:59:02.665Z,25.10
2023-02-22T11:01:37.854Z,25.33
2023-02-22T11:04:12.119Z,24.55
2023-02-22T11:09:11.504Z,25.00
2023-02-22T11:11:41.268Z,24.05
2023-02-22T11:14:10.867Z,23.02
2023-02-22T11:16:42.848Z,24.52
2023-02-22T11:19:20.840Z,24.50
2023-02-22T11:21:51.525Z,23.90
2023-02-22T11:24:24.645Z,22.63
2023-02-22T11:26:55.181Z,22.90
2023-02-22T11:29:27.529Z,23.15
2023-02-22T11:31:57.228Z,23.25
2023-02-22T11:34:32.205Z,23.52
2023-02-22T11:37:31.427Z,22.17
2023-02-22T11:40:15.712Z,22.00
2023-02-22T11:42:43.612Z,23.52
2023-02-22T11:45:14.623Z,27.25
2023-02-22T11:47:55.317Z,25.73
2023-02-22T11:50:29.287Z,37.75
2023-02-22T11:53:23.025Z,35.15
2023-02-22T11:56:11.912Z,26.88
2023-02-22T11:58:45.697Z,25.92
2023-02-22T12:01:20.993Z,24.77
2023-02-22T12:04:10.445Z,24.83
2023-02-22T12:06:46.149Z,25.90
2023-02-22T12:09:16.790Z,22.25
2023-02-22T12:11:57.302Z,21.63
2023-02-22T12:14:27.869Z,23.10
2023-02-22T12:17:20.507Z,22.00
2023-02-22T12:19:51.394Z,27.58
2023-02-22T12:22:34.702Z,21.33
2023-02-22T12:25:09.863Z,24.00
2023-02-22T12:27:42.398Z,20.52
2023-02-22T12:30:15.152Z,22.42
2023-02-22T12:32:46.388Z,23.08
2023-02-22T12:35:18.138Z,25.48
2023-02-22T12:37:53.769Z,24.02
2023-02-22T12:40:26.820Z,22.35
2023-02-22T12:42:59.955Z,26.25
2023-02-22T12:45:32.587Z,23.38
2023-02-22T12:48:21.649Z,23.13
2023-02-22T12:51:17.319Z,23.20
2023-02-22T12:53:52.648Z,23.10
2023-02-22T12:56:25.023Z,24.90
2023-02-22T12:58:57.084Z,52.00
2023-02-22T13:01:30.257Z,23.58
2023-02-22T13:04:00.727Z,23.08
2023-02-22T13:06:51.472Z,24.20
2023-02-22T13:09:35.032Z,21.40
2023-02-22T13:12:08.296Z,22.92
2023-02-22T13:14:49.548Z,21.35
2023-02-22T13:17:22.030Z,24.95
2023-02-22T13:19:55.956Z,23.33
2023-02-22T13:22:28.952Z,24.13
2023-02-22T13:25:04.860Z,24.67
2023-02-22T13:27:38.514Z,23.27
2023-02-22T13:30:08.447Z,25.73
2023-02-22T13:32:48.440Z,25.92
2023-02-22T13:35:35.109Z,22.67
2023-02-22T13:38:18.764Z,23.63
2023-02-22T13:41:20.430Z,28.42
2023-02-22T13:44:01.425Z,23.38
2023-02-22T13:46:56.179Z,23.08
2023-02-22T13:49:51.583Z,23.63
2023-02-22T13:52:21.683Z,24.08
2023-02-22T13:54:54.649Z,24.60
2023-02-22T13:57:25.525Z,25.73
2023-02-22T14:00:26.214Z,25.60
2023-02-22T14:03:02.086Z,23.35
2023-02-22T14:05:37.513Z,22.63
2023-02-22T14:08:05.649Z,24.08
2023-02-22T14:10:47.956Z,25.23
2023-02-22T14:13:18.132Z,28.50
2023-02-22T14:16:20.995Z,25.08
2023-02-22T14:18:51.808Z,21.25
2023-02-22T14:21:21.345Z,21.13
2023-02-22T14:23:50.366Z,20.95
2023-02-22T14:26:26.554Z,20.55
2023-02-22T14:28:57.195Z,21.27
2023-02-22T14:31:35.995Z,25.40
2023-02-22T14:34:08.880Z,25.85
2023-02-22T14:36:42.826Z,21.10
2023-02-22T14:39:15.654Z,20.02
2023-02-22T14:41:49.191Z,20.48
2023-02-22T14:44:18.545Z,21.95
2023-02-22T14:46:50.136Z,20.52
2023-02-22T14:49:22.443Z,21.48
2023-02-22T14:51:54.392Z,21.02
2023-02-22T14:54:27.572Z,34.25
2023-02-22T14:57:12.148Z,23.90
2023-02-22T15:02:14.992Z,19.38
2023-02-22T15:04:44.080Z,21.27
2023-02-22T15:07:27.376Z,21.13
2023-02-22T15:10:25.252Z,20.95
2023-02-22T15:13:09.004Z,21.55
2023-02-22T15:15:39.731Z,21.48
2023-02-22T15:18:18.835Z,22.08
2023-02-22T15:20:49.227Z,19.38
2023-02-22T15:23:17.579Z,19.83
2023-02-22T15:25:49.335Z,18.10
2023-02-22T15:28:19.199Z,19.08
2023-02-22T15:30:47.206Z,17.80
2023-02-22T15:33:17.974Z,19.10
2023-02-22T15:35:46.138Z,18.33
2023-02-22T15:38:22.156Z,20.45
2023-02-22T15:41:00.874Z,17.48
2023-02-22T15:43:32.099Z,16.98
2023-02-22T15:46:00.745Z,18.17
2023-02-22T15:48:31.732Z,19.08
2023-02-22T15:51:06.734Z,39.60
2023-02-22T15:53:40.079Z,78.95
2023-02-22T15:56:13.930Z,27.23
2023-02-22T15:58:43.464Z,20.88
2023-02-22T16:01:17.230Z,23.80
2023-02-22T16:03:47.431Z,21.58
2023-02-22T16:06:17.445Z,21.38
2023-02-22T16:08:55.037Z,19.73
2023-02-22T16:11:30.083Z,19.27
2023-02-22T16:14:01.831Z,19.40
2023-02-22T16:16:31.280Z,21.13
2023-02-22T16:19:34.658Z,20.63
2023-02-22T16:22:03.881Z,18.98
2023-02-22T16:24:33.546Z,27.30
2023-02-22T16:27:07.291Z,19.98
2023-02-22T16:29:36.718Z,18.52
2023-02-22T16:32:04.989Z,20.02
2023-02-22T16:34:32.975Z,25.10
2023-02-22T16:37:01.386Z,21.45
2023-02-22T16:39:30.553Z,26.13
2023-02-22T16:41:59.669Z,21.52
2023-02-22T16:44:27.909Z,19.92
2023-02-22T16:46:59.360Z,20.98
2023-02-22T16:49:27.742Z,21.35
2023-02-22T16:51:57.794Z,22.88
2023-02-22T16:54:28.399Z,22.48
2023-02-22T16:56:57.130Z,21.95
2023-02-22T16:59:25.050Z,22.45
2023-02-22T17:01:52.930Z,25.77
2023-02-22T17:04:24.123Z,29.27
2023-02-22T17:06:51.976Z,23.77
2023-02-22T17:09:20.314Z,25.52
2023-02-22T17:11:49.351Z,24.67
2023-02-22T17:14:19.316Z,22.95
2023-02-22T17:16:47.619Z,22.52
2023-02-22T17:19:17.586Z,21.38
2023-02-22T17:21:47.048Z,22.75
2023-02-22T17:24:16.304Z,21.90
2023-02-22T17:26:44.545Z,23.30
2023-02-22T17:29:13.715Z,25.60
2023-02-22T17:31:41.704Z,23.60
2023-02-22T17:34:09.678Z,24.15
2023-02-22T17:36:39.826Z,27.20
2023-02-22T17:39:10.716Z,25.52
2023-02-22T17:41:40.558Z,25.38
2023-02-22T17:44:08.697Z,23.85
2023-02-22T17:46:37.336Z,24.45
2023-02-22T17:49:05.229Z,24.15
2023-02-22T17:51:33.207Z,25.60
2023-02-22T17:54:01.023Z,26.45
2023-02-22T17:56:30.159Z,25.60
2023-02-22T17:58:57.956Z,26.63
2023-02-22T18:01:27.947Z,26.90
2023-02-22T18:03:58.345Z,28.45
2023-02-22T18:06:27.300Z,30.15
2023-02-22T18:08:56.786Z,30.98
2023-02-22T18:11:26.506Z,33.63
2023-02-22T18:13:57.473Z,31.60
2023-02-22T18:16:26.615Z,31.40
2023-02-22T18:18:56.056Z,32.53
2023-02-22T18:21:26.462Z,37.00
2023-02-22T18:23:54.849Z,35.22
2023-02-22T18:26:24.522Z,35.80
2023-02-22T18:28:53.620Z,36.38
2023-02-22T18:31:24.149Z,36.33
2023-02-22T18:33:53.426Z,38.08
2023-02-22T18:36:23.422Z,38.47
2023-02-22T18:38:52.257Z,40.65
2023-02-22T18:41:21.673Z,41.22
2023-02-22T18:43:51.349Z,42.78
2023-02-22T18:46:21.331Z,42.72
2023-02-22T18:48:53.768Z,44.80
2023-02-22T18:51:21.686Z,43.70
2023-02-22T18:53:50.098Z,45.55
2023-02-22T18:56:21.854Z,46.45
2023-02-22T18:58:53.886Z,47.05
2023-02-22T19:01:22.633Z,45.70
2023-02-22T19:03:52.756Z,44.30
2023-02-22T19:06:22.706Z,46.65
2023-02-22T19:08:51.729Z,44.20
2023-02-22T19:11:21.830Z,46.30
2023-02-22T19:13:51.484Z,48.65
2023-02-22T19:16:21.919Z,48.53
2023-02-22T19:18:57.264Z,46.80
2023-02-22T19:21:26.590Z,46.75
2023-02-22T19:24:01.268Z,47.15
2023-02-22T19:26:29.439Z,48.70
2023-02-22T19:28:58.669Z,48.35
2023-02-22T19:31:30.655Z,49.83
2023-02-22T19:34:02.655Z,47.95
2023-02-22T19:36:30.628Z,51.22
2023-02-22T19:39:01.605Z,50.65
2023-02-22T19:41:29.796Z,50.05
2023-02-22T19:43:57.964Z,48.47
2023-02-22T19:46:25.919Z,50.88
2023-02-22T19:48:55.370Z,49.58
2023-02-22T19:51:26.222Z,51.13
2023-02-22T19:53:54.879Z,52.08
2023-02-22T19:56:27.394Z,54.45
2023-02-22T19:58:57.053Z,51.15
2023-02-22T20:01:26.546Z,51.00
2023-02-22T20:03:56.264Z,53.20
2023-02-22T20:06:28.211Z,50.92
2023-02-22T20:08:57.636Z,52.25
2023-02-22T20:11:26.176Z,48.75
2023-02-22T20:13:55.560Z,50.08
2023-02-22T20:16:23.839Z,52.28
2023-02-22T20:18:52.211Z,50.70
2023-02-22T20:21:21.885Z,51.75
2023-02-22T20:23:51.196Z,54.25
2023-02-22T20:26:22.414Z,52.28
2023-02-22T20:28:50.970Z,52.47
2023-02-22T20:31:19.623Z,52.05
2023-02-22T20:33:49.931Z,52.67
2023-02-22T20:36:19.152Z,51.63
2023-02-22T20:38:47.174Z,51.28
2023-02-22T20:41:21.233Z,50.08
2023-02-22T20:43:52.447Z,52.50
2023-02-22T20:46:26.532Z,51.53
2023-02-22T20:49:02.908Z,52.30
2023-02-22T20:51:31.995Z,50.85
2023-02-22T20:54:04.199Z,50.90
2023-02-22T20:56:37.664Z,49.67
2023-02-22T20:59:09.702Z,51.28
2023-02-22T21:01:52.859Z,52.47
2023-02-22T21:06:52.072Z,50.08
2023-02-22T21:09:22.960Z,52.58
2023-02-22T21:11:52.744Z,53.15
2023-02-22T21:14:28.027Z,53.08
2023-02-22T21:16:58.688Z,53.60
2023-02-22T21:19:26.629Z,53.28
2023-02-22T21:21:55.673Z,53.60
2023-02-22T21:24:24.581Z,52.35
2023-02-22T21:26:53.805Z,51.67
2023-02-22T21:29:21.637Z,52.70
2023-02-22T21:31:49.751Z,51.15
2023-02-22T21:34:18.186Z,50.15
2023-02-22T21:36:46.474Z,50.17
2023-02-22T21:39:19.281Z,50.55
2023-02-22T21:41:48.071Z,50.75
2023-02-22T21:44:18.236Z,50.22
2023-02-22T21:46:48.888Z,51.75
2023-02-22T21:49:17.142Z,51.00
2023-02-22T21:51:45.748Z,52.40
2023-02-22T21:54:13.759Z,50.67
2023-02-22T21:56:42.994Z,52.13
2023-02-22T21:59:13.420Z,53.53
2023-02-22T22:01:47.314Z,56.78
2023-02-22T22:04:18.860Z,55.38
2023-02-22T22:06:48.117Z,54.22
2023-02-22T22:09:19.271Z,51.83
2023-02-22T22:11:49.699Z,51.70
2023-02-22T22:14:18.653Z,51.45
2023-02-22T22:16:52.336Z,54.50
2023-02-22T22:19:20.552Z,54.17
2023-02-22T22:21:50.055Z,52.67
2023-02-22T22:24:20.642Z,53.05
2023-02-22T22:26:51.178Z,52.25
2023-02-22T22:29:19.438Z,50.78
2023-02-22T22:31:47.497Z,51.13
2023-02-22T22:34:16.738Z,50.47
2023-02-22T22:36:44.513Z,53.42
2023-02-22T22:39:14.008Z,50.72
2023-02-22T22:41:42.015Z,51.00
2023-02-22T22:44:10.051Z,53.15
2023-02-22T22:46:41.022Z,53.03
2023-02-22T22:49:09.588Z,53.15
2023-02-22T22:51:41.149Z,50.08
2023-02-22T22:54:09.698Z,51.80
2023-02-22T22:56:39.291Z,51.22
2023-02-22T22:59:09.310Z,50.83
2023-02-22T23:01:40.581Z,53.22
2023-02-22T23:04:10.106Z,51.88
2023-02-22T23:06:41.013Z,51.40
2023-02-22T23:09:11.794Z,51.35
2023-02-22T23:11:44.427Z,50.70
2023-02-22T23:14:13.736Z,49.42
2023-02-22T23:16:42.808Z,48.17
2023-02-22T23:19:11.157Z,52.25
2023-02-22T23:21:43.180Z,48.67
2023-02-22T23:24:11.125Z,50.05
2023-02-22T23:26:38.948Z,50.47
2023-02-22T23:29:08.962Z,48.40
2023-02-22T23:31:39.731Z,49.75
2023-02-22T23:34:11.156Z,48.95
2023-02-22T23:36:44.426Z,51.05
2023-02-22T23:39:12.885Z,50.00
2023-02-22T23:41:40.722Z,47.75
2023-02-22T23:44:11.248Z,48.13
2023-02-22T23:46:41.700Z,48.47
2023-02-22T23:49:10.498Z,47.80
2023-02-22T23:51:42.249Z,48.97
2023-02-22T23:54:13.293Z,46.03
2023-02-22T23:56:47.309Z,47.70
2023-02-22T23:59:15.799Z,46.03
